createdAt,value
2018-01-02T00:00:43.381Z,83.63
2018-01-02T00:01:43.366Z,83.82
2018-01-02T00:02:43.350Z,84.10
2018-01-02T00:03:43.341Z,84.20
2018-01-02T00:04:43.323Z,84.20
2018-01-02T00:05:43.306Z,83.40
2018-01-02T00:06:43.290Z,84.16
2018-01-02T00:07:43.281Z,84.67
2018-01-02T00:08:43.270Z,84.10
2018-01-02T00:09:43.250Z,84.20
2018-01-02T00:10:43.239Z,83.53
2018-01-02T00:11:43.219Z,83.72
2018-01-02T00:12:43.211Z,83.49
2018-01-02T00:13:43.197Z,83.78
2018-01-02T00:14:43.183Z,83.78
2018-01-02T00:15:43.168Z,83.78
2018-01-02T00:16:43.154Z,83.59
2018-01-02T00:17:43.136Z,83.59
2018-01-02T00:18:43.122Z,83.49
2018-01-02T00:19:43.106Z,83.40
2018-01-02T00:20:43.091Z,83.63
2018-01-02T00:21:43.078Z,82.64
2018-01-02T00:22:43.063Z,82.54
2018-01-02T00:23:43.047Z,82.73
2018-01-02T00:24:43.034Z,83.02
2018-01-02T00:25:43.014Z,83.02
2018-01-02T00:26:43.005Z,83.30
2018-01-02T00:27:42.989Z,83.21
2018-01-02T00:28:42.977Z,83.21
2018-01-02T00:29:42.961Z,83.11
2018-01-02T00:30:42.944Z,83.02
2018-01-02T00:31:42.935Z,83.02
2018-01-02T00:32:42.914Z,82.92
2018-01-02T00:33:42.904Z,83.11
2018-01-02T00:34:42.883Z,83.78
2018-01-02T00:35:42.874Z,83.68
2018-01-02T00:36:42.858Z,83.87
2018-01-02T00:37:42.869Z,84.53
2018-01-02T00:38:42.832Z,84.44
2018-01-02T00:39:42.806Z,84.16
2018-01-02T00:40:42.797Z,83.59
2018-01-02T00:41:42.787Z,83.97
2018-01-02T00:42:42.771Z,83.59
2018-01-02T00:43:42.756Z,83.21
2018-01-02T00:44:42.755Z,83.30
2018-01-02T00:45:42.726Z,82.73
2018-01-02T00:46:42.708Z,83.11
2018-01-02T00:47:42.697Z,83.30
2018-01-02T00:48:42.693Z,83.59
2018-01-02T00:49:42.675Z,83.21
2018-01-02T00:50:42.659Z,83.49
2018-01-02T00:51:42.637Z,83.49
2018-01-02T00:52:42.624Z,83.59
2018-01-02T00:53:42.610Z,83.30
2018-01-02T00:54:42.592Z,84.16
2018-01-02T00:55:42.576Z,84.63
2018-01-02T00:56:42.563Z,84.44
2018-01-02T00:57:42.549Z,84.16
2018-01-02T00:58:42.534Z,84.44
2018-01-02T00:59:42.522Z,84.63
2018-01-02T01:00:42.506Z,84.44
2018-01-02T01:01:42.492Z,84.25
2018-01-02T01:02:42.476Z,84.34
2018-01-02T01:03:42.459Z,83.59
2018-01-02T01:04:42.451Z,83.78
2018-01-02T01:05:42.431Z,83.49
2018-01-02T01:06:42.419Z,83.97
2018-01-02T01:07:42.402Z,83.49
2018-01-02T01:08:42.385Z,83.40
2018-01-02T01:09:42.371Z,83.49
2018-01-02T01:10:42.353Z,83.68
2018-01-02T01:11:42.341Z,83.78
2018-01-02T01:12:42.326Z,84.16
2018-01-02T01:13:42.311Z,84.06
2018-01-02T01:14:42.298Z,84.25
2018-01-02T01:15:42.283Z,83.68
2018-01-02T01:16:42.271Z,84.25
2018-01-02T01:17:42.250Z,83.78
2018-01-02T01:18:42.235Z,83.87
2018-01-02T01:19:42.222Z,83.87
2018-01-02T01:20:42.208Z,83.49
2018-01-02T01:21:42.192Z,83.68
2018-01-02T01:22:42.172Z,83.30
2018-01-02T01:23:42.161Z,83.21
2018-01-02T01:24:42.145Z,83.59
2018-01-02T01:25:42.132Z,83.49
2018-01-02T01:26:42.118Z,83.40
2018-01-02T01:27:42.099Z,82.83
2018-01-02T01:28:42.087Z,83.49
2018-01-02T01:29:42.075Z,83.30
2018-01-02T01:30:42.057Z,83.59
2018-01-02T01:31:42.048Z,83.40
2018-01-02T01:32:42.027Z,83.59
2018-01-02T01:33:42.009Z,83.87
2018-01-02T01:34:42.003Z,84.06
2018-01-02T01:35:41.990Z,84.16
2018-01-02T01:36:41.966Z,83.87
2018-01-02T01:37:41.952Z,84.06
2018-01-02T01:38:41.937Z,84.25
2018-01-02T01:39:41.925Z,83.78
2018-01-02T01:40:41.903Z,83.49
2018-01-02T01:41:41.893Z,83.97
2018-01-02T01:42:41.880Z,83.59
2018-01-02T01:43:41.861Z,83.68
2018-01-02T01:44:41.853Z,83.21
2018-01-02T01:45:41.833Z,83.21
2018-01-02T01:46:41.826Z,83.78
2018-01-02T01:47:41.805Z,83.11
2018-01-02T01:48:41.793Z,83.30
2018-01-02T01:49:41.776Z,83.11
2018-01-02T01:50:41.756Z,82.83
2018-01-02T01:51:41.743Z,82.92
2018-01-02T01:52:41.733Z,82.92
2018-01-02T01:53:41.716Z,83.06
2018-01-02T01:54:41.706Z,83.02
2018-01-02T01:55:41.687Z,83.02
2018-01-02T01:56:41.674Z,82.59
2018-01-02T01:57:41.657Z,82.78
2018-01-02T01:58:41.639Z,82.87
2018-01-02T01:59:41.626Z,83.06
2018-01-02T02:00:41.614Z,83.06
2018-01-02T02:01:41.597Z,82.97
2018-01-02T02:02:41.584Z,82.68
2018-01-02T02:03:41.568Z,83.15
2018-01-02T02:04:41.559Z,83.06
2018-01-02T02:05:41.543Z,82.68
2018-01-02T02:06:41.522Z,83.06
2018-01-02T02:07:41.508Z,82.87
2018-01-02T02:08:41.495Z,82.97
2018-01-02T02:09:41.477Z,83.06
2018-01-02T02:10:41.466Z,82.87
2018-01-02T02:11:41.448Z,82.87
2018-01-02T02:12:41.435Z,82.87
2018-01-02T02:13:41.418Z,82.87
2018-01-02T02:14:41.407Z,82.97
2018-01-02T02:15:41.395Z,82.97
2018-01-02T02:16:41.374Z,83.15
2018-01-02T02:17:41.358Z,82.97
2018-01-02T02:18:41.347Z,83.91
2018-01-02T02:19:41.331Z,83.82
2018-01-02T02:20:41.317Z,83.78
2018-01-02T02:21:41.303Z,84.10
2018-01-02T02:22:41.288Z,84.01
2018-01-02T02:23:41.274Z,83.72
2018-01-02T02:24:41.260Z,84.10
2018-01-02T02:25:41.245Z,83.91
2018-01-02T02:26:41.238Z,84.58
2018-01-02T02:27:41.211Z,84.58
2018-01-02T02:28:41.206Z,85.52
2018-01-02T02:29:41.188Z,85.24
2018-01-02T02:30:41.172Z,85.61
2018-01-02T02:31:41.157Z,85.33
2018-01-02T02:32:41.141Z,85.24
2018-01-02T02:33:41.129Z,85.24
2018-01-02T02:34:41.109Z,85.90
2018-01-02T02:35:41.098Z,86.75
2018-01-02T02:36:41.084Z,87.70
2018-01-02T02:37:41.066Z,88.12
2018-01-02T02:38:41.052Z,87.46
2018-01-02T02:39:41.039Z,88.50
2018-01-02T02:40:41.026Z,88.79
2018-01-02T02:41:41.008Z,89.54
2018-01-02T02:42:41.004Z,89.83
2018-01-02T02:43:40.981Z,89.92
2018-01-02T02:44:40.963Z,90.49
2018-01-02T02:45:40.949Z,90.49
2018-01-02T02:46:40.934Z,90.68
2018-01-02T02:47:40.922Z,89.92
2018-01-02T02:48:40.908Z,90.30
2018-01-02T02:49:40.893Z,90.58
2018-01-02T02:50:40.873Z,90.39
2018-01-02T02:51:40.861Z,90.68
2018-01-02T02:52:40.844Z,90.30
2018-01-02T02:53:40.832Z,90.01
2018-01-02T02:54:40.820Z,90.11
2018-01-02T02:55:40.801Z,89.83
2018-01-02T02:56:40.793Z,90.20
2018-01-02T02:57:40.777Z,90.39
2018-01-02T02:58:40.759Z,89.83
2018-01-02T02:59:40.743Z,89.54
2018-01-02T03:00:40.730Z,90.01
2018-01-02T03:01:40.713Z,89.83
2018-01-02T03:02:40.694Z,89.92
2018-01-02T03:03:40.685Z,89.54
2018-01-02T03:04:40.671Z,89.73
2018-01-02T03:05:40.653Z,89.54
2018-01-02T03:06:40.639Z,88.88
2018-01-02T03:07:40.622Z,88.50
2018-01-02T03:08:40.610Z,87.65
2018-01-02T03:09:40.596Z,87.46
2018-01-02T03:10:40.583Z,88.03
2018-01-02T03:11:40.566Z,87.55
2018-01-02T03:12:40.549Z,87.46
2018-01-02T03:13:40.535Z,87.74
2018-01-02T03:14:40.517Z,88.41
2018-01-02T03:15:40.506Z,89.07
2018-01-02T03:16:40.488Z,88.98
2018-01-02T03:17:40.474Z,88.98
2018-01-02T03:18:40.462Z,89.07
2018-01-02T03:19:40.444Z,88.60
2018-01-02T03:20:40.433Z,89.83
2018-01-02T03:21:40.416Z,89.64
2018-01-02T03:22:40.401Z,89.45
2018-01-02T03:23:40.385Z,89.26
2018-01-02T03:24:40.368Z,89.64
2018-01-02T03:25:40.352Z,88.69
2018-01-02T03:26:40.342Z,89.07
2018-01-02T03:27:40.328Z,88.88
2018-01-02T03:28:40.314Z,88.79
2018-01-02T03:29:40.300Z,89.07
2018-01-02T03:30:40.287Z,88.98
2018-01-02T03:31:40.264Z,89.26
2018-01-02T03:32:40.255Z,88.88
2018-01-02T03:33:40.241Z,89.26
2018-01-02T03:34:40.229Z,89.36
2018-01-02T03:35:40.209Z,88.60
2018-01-02T03:36:40.194Z,89.45
2018-01-02T03:37:40.182Z,89.07
2018-01-02T03:38:40.165Z,89.54
2018-01-02T03:39:40.147Z,89.45
2018-01-02T03:40:40.137Z,89.36
2018-01-02T03:41:40.119Z,89.26
2018-01-02T03:42:40.102Z,89.45
2018-01-02T03:43:40.088Z,89.54
2018-01-02T03:44:40.069Z,89.07
2018-01-02T03:45:40.057Z,88.79
2018-01-02T03:46:40.047Z,89.64
2018-01-02T03:47:40.028Z,89.17
2018-01-02T03:48:40.015Z,89.83
2018-01-02T03:49:40.001Z,89.12
2018-01-02T03:50:39.992Z,88.74
2018-01-02T03:51:39.968Z,89.12
2018-01-02T03:52:39.959Z,88.64
2018-01-02T03:53:39.943Z,88.45
2018-01-02T03:54:39.927Z,89.21
2018-01-02T03:55:39.912Z,88.64
2018-01-02T03:56:39.903Z,89.12
2018-01-02T03:57:39.896Z,89.12
2018-01-02T03:58:39.864Z,89.21
2018-01-02T03:59:39.855Z,89.02
2018-01-02T04:00:39.842Z,89.21
2018-01-02T04:01:39.825Z,88.74
2018-01-02T04:02:39.820Z,88.17
2018-01-02T04:03:39.808Z,88.55
2018-01-02T04:04:39.811Z,88.64
2018-01-02T04:05:39.785Z,88.07
2018-01-02T04:06:39.752Z,88.07
2018-01-02T04:07:39.736Z,87.88
2018-01-02T04:08:39.726Z,88.07
2018-01-02T04:09:39.707Z,88.07
2018-01-02T04:10:39.696Z,88.45
2018-01-02T04:11:39.676Z,88.64
2018-01-02T04:12:39.660Z,88.45
2018-01-02T04:13:39.652Z,88.45
2018-01-02T04:14:39.639Z,88.17
2018-01-02T04:15:39.617Z,87.79
2018-01-02T04:16:39.605Z,87.84
2018-01-02T04:17:39.594Z,88.45
2018-01-02T04:18:39.578Z,88.26
2018-01-02T04:19:39.561Z,87.60
2018-01-02T04:20:39.546Z,87.88
2018-01-02T04:21:39.535Z,88.26
2018-01-02T04:22:39.520Z,87.79
2018-01-02T04:23:39.506Z,87.88
2018-01-02T04:24:39.486Z,87.79
2018-01-02T04:25:39.473Z,87.98
2018-01-02T04:26:39.459Z,87.88
2018-01-02T04:27:39.445Z,87.79
2018-01-02T04:28:39.434Z,87.79
2018-01-02T04:29:39.415Z,87.70
2018-01-02T04:30:39.401Z,88.07
2018-01-02T04:31:39.386Z,87.88
2018-01-02T04:32:39.375Z,87.88
2018-01-02T04:33:39.355Z,87.93
2018-01-02T04:34:39.341Z,88.26
2018-01-02T04:35:39.328Z,88.03
2018-01-02T04:36:39.316Z,87.98
2018-01-02T04:37:39.297Z,88.26
2018-01-02T04:38:39.286Z,87.88
2018-01-02T04:39:39.287Z,87.88
2018-01-02T04:40:39.269Z,87.98
2018-01-02T04:41:39.240Z,87.60
2018-01-02T04:42:39.226Z,87.51
2018-01-02T04:43:39.211Z,87.04
2018-01-02T04:44:39.197Z,87.13
2018-01-02T04:45:39.184Z,87.23
2018-01-02T04:46:39.168Z,87.04
2018-01-02T04:47:39.151Z,87.04
2018-01-02T04:48:39.139Z,87.41
2018-01-02T04:49:39.126Z,87.32
2018-01-02T04:50:39.108Z,87.23
2018-01-02T04:51:39.097Z,87.70
2018-01-02T04:52:39.079Z,87.70
2018-01-02T04:53:39.061Z,87.70
2018-01-02T04:54:39.055Z,87.51
2018-01-02T04:55:39.041Z,87.84
2018-01-02T04:56:39.022Z,88.36
2018-01-02T04:57:39.011Z,87.04
2018-01-02T04:58:38.993Z,87.88
2018-01-02T04:59:38.984Z,88.17
2018-01-02T05:00:38.960Z,87.93
2018-01-02T05:01:38.958Z,89.02
2018-01-02T05:02:38.934Z,88.45
2018-01-02T05:03:38.921Z,88.22
2018-01-02T05:04:38.906Z,88.36
2018-01-02T05:05:38.892Z,87.88
2018-01-02T05:06:38.874Z,87.41
2018-01-02T05:07:38.859Z,87.70
2018-01-02T05:08:38.844Z,86.94
2018-01-02T05:09:38.832Z,87.13
2018-01-02T05:10:38.819Z,87.23
2018-01-02T05:11:38.806Z,86.47
2018-01-02T05:12:38.786Z,85.99
2018-01-02T05:13:38.777Z,85.80
2018-01-02T05:14:38.761Z,85.14
2018-01-02T05:15:38.748Z,84.67
2018-01-02T05:16:38.730Z,84.91
2018-01-02T05:17:38.715Z,85.00
2018-01-02T05:18:38.699Z,84.77
2018-01-02T05:19:38.688Z,84.95
2018-01-02T05:20:38.671Z,84.58
2018-01-02T05:21:38.658Z,83.34
2018-01-02T05:22:38.644Z,84.01
2018-01-02T05:23:38.628Z,83.82
2018-01-02T05:24:38.612Z,83.72
2018-01-02T05:25:38.600Z,83.53
2018-01-02T05:26:38.584Z,83.63
2018-01-02T05:27:38.579Z,83.53
2018-01-02T05:28:38.563Z,83.72
2018-01-02T05:29:38.540Z,84.39
2018-01-02T05:30:38.526Z,85.47
2018-01-02T05:31:38.510Z,86.99
2018-01-02T05:32:38.502Z,87.27
2018-01-02T05:33:38.483Z,87.18
2018-01-02T05:34:38.469Z,87.46
2018-01-02T05:35:38.451Z,87.37
2018-01-02T05:36:38.435Z,86.80
2018-01-02T05:37:38.423Z,87.65
2018-01-02T05:38:38.408Z,87.70
2018-01-02T05:39:38.398Z,87.65
2018-01-02T05:40:38.370Z,87.32
2018-01-02T05:41:38.370Z,86.85
2018-01-02T05:42:38.350Z,86.75
2018-01-02T05:43:38.338Z,86.28
2018-01-02T05:44:38.319Z,85.90
2018-01-02T05:45:38.305Z,86.47
2018-01-02T05:46:38.291Z,86.56
2018-01-02T05:47:38.277Z,87.70
2018-01-02T05:48:38.260Z,87.23
2018-01-02T05:49:38.249Z,87.70
2018-01-02T05:50:38.234Z,87.13
2018-01-02T05:51:38.223Z,86.47
2018-01-02T05:52:38.205Z,87.70
2018-01-02T05:53:38.196Z,88.17
2018-01-02T05:54:38.176Z,87.51
2018-01-02T05:55:38.160Z,86.47
2018-01-02T05:56:38.147Z,86.18
2018-01-02T05:57:38.131Z,85.90
2018-01-02T05:58:38.132Z,86.94
2018-01-02T05:59:38.104Z,86.66
2018-01-02T06:00:38.088Z,87.13
2018-01-02T06:01:38.073Z,87.41
2018-01-02T06:02:38.061Z,86.85
2018-01-02T06:03:38.046Z,87.88
2018-01-02T06:04:38.046Z,88.17
2018-01-02T06:05:38.030Z,88.07
2018-01-02T06:06:38.000Z,87.51
2018-01-02T06:07:37.986Z,88.07
2018-01-02T06:08:37.972Z,87.51
2018-01-02T06:09:37.961Z,88.36
2018-01-02T06:10:37.945Z,88.26
2018-01-02T06:11:37.929Z,87.88
2018-01-02T06:12:37.918Z,87.04
2018-01-02T06:13:37.898Z,87.70
2018-01-02T06:14:37.880Z,87.41
2018-01-02T06:15:37.872Z,85.52
2018-01-02T06:16:37.855Z,83.44
2018-01-02T06:17:37.840Z,83.25
2018-01-02T06:18:37.826Z,83.63
2018-01-02T06:19:37.808Z,84.29
2018-01-02T06:20:37.801Z,84.20
2018-01-02T06:21:37.782Z,84.53
2018-01-02T06:22:37.769Z,84.53
2018-01-02T06:23:37.749Z,84.77
2018-01-02T06:24:37.739Z,84.95
2018-01-02T06:25:37.724Z,84.95
2018-01-02T06:26:37.713Z,85.00
2018-01-02T06:27:37.713Z,85.95
2018-01-02T06:28:37.681Z,86.33
2018-01-02T06:29:37.666Z,87.27
2018-01-02T06:30:37.651Z,87.65
2018-01-02T06:31:37.640Z,87.74
2018-01-02T06:32:37.623Z,87.46
2018-01-02T06:33:37.605Z,87.74
2018-01-02T06:34:37.595Z,88.03
2018-01-02T06:35:37.580Z,88.03
2018-01-02T06:36:37.564Z,88.69
2018-01-02T06:37:37.548Z,88.12
2018-01-02T06:38:37.542Z,88.12
2018-01-02T06:39:37.518Z,87.84
2018-01-02T06:40:37.509Z,87.74
2018-01-02T06:41:37.487Z,88.03
2018-01-02T06:42:37.474Z,87.46
2018-01-02T06:43:37.483Z,86.80
2018-01-02T06:44:37.444Z,86.42
2018-01-02T06:45:37.432Z,86.42
2018-01-02T06:46:37.416Z,86.61
2018-01-02T06:47:37.407Z,87.08
2018-01-02T06:48:37.385Z,87.65
2018-01-02T06:49:37.367Z,87.74
2018-01-02T06:50:37.356Z,87.84
2018-01-02T06:51:37.338Z,87.93
2018-01-02T06:52:37.324Z,87.84
2018-01-02T06:53:37.312Z,87.70
2018-01-02T06:54:37.299Z,87.88
2018-01-02T06:55:37.283Z,86.90
2018-01-02T06:56:37.265Z,87.65
2018-01-02T06:57:37.254Z,87.79
2018-01-02T06:58:37.238Z,87.79
2018-01-02T06:59:37.225Z,87.79
2018-01-02T07:00:37.214Z,87.41
2018-01-02T07:01:37.189Z,88.07
2018-01-02T07:02:37.190Z,87.88
2018-01-02T07:03:37.164Z,87.79
2018-01-02T07:04:37.150Z,87.32
2018-01-02T07:05:37.132Z,87.60
2018-01-02T07:06:37.119Z,87.51
2018-01-02T07:07:37.105Z,87.65
2018-01-02T07:08:37.088Z,87.60
2018-01-02T07:09:37.080Z,87.60
2018-01-02T07:10:37.058Z,87.98
2018-01-02T07:11:37.049Z,87.32
2018-01-02T07:12:37.037Z,87.32
2018-01-02T07:13:37.019Z,88.17
2018-01-02T07:14:37.005Z,87.88
2018-01-02T07:15:36.987Z,88.45
2018-01-02T07:16:36.974Z,87.88
2018-01-02T07:17:36.959Z,88.74
2018-01-02T07:18:36.949Z,87.79
2018-01-02T07:19:36.930Z,87.70
2018-01-02T07:20:36.916Z,87.98
2018-01-02T07:21:36.901Z,87.98
2018-01-02T07:22:36.892Z,87.70
2018-01-02T07:23:36.870Z,87.79
2018-01-02T07:24:36.856Z,87.51
2018-01-02T07:25:36.844Z,88.12
2018-01-02T07:26:36.831Z,87.74
2018-01-02T07:27:36.810Z,88.26
2018-01-02T07:28:36.797Z,88.26
2018-01-02T07:29:36.781Z,88.45
2018-01-02T07:30:36.772Z,87.84
2018-01-02T07:31:36.752Z,88.55
2018-01-02T07:32:36.740Z,87.98
2018-01-02T07:33:36.729Z,87.74
2018-01-02T07:34:36.719Z,88.22
2018-01-02T07:35:36.696Z,87.84
2018-01-02T07:36:36.678Z,87.84
2018-01-02T07:37:36.669Z,88.50
2018-01-02T07:38:36.654Z,88.26
2018-01-02T07:39:36.637Z,88.50
2018-01-02T07:40:36.618Z,88.31
2018-01-02T07:41:36.606Z,88.45
2018-01-02T07:42:36.593Z,87.88
2018-01-02T07:43:36.576Z,88.36
2018-01-02T07:44:36.562Z,88.07
2018-01-02T07:45:36.549Z,87.51
2018-01-02T07:46:36.536Z,87.32
2018-01-02T07:47:36.519Z,86.75
2018-01-02T07:48:36.505Z,86.42
2018-01-02T07:49:36.486Z,86.52
2018-01-02T07:50:36.473Z,86.28
2018-01-02T07:51:36.459Z,87.04
2018-01-02T07:52:36.445Z,87.60
2018-01-02T07:53:36.430Z,87.60
2018-01-02T07:54:36.418Z,87.32
2018-01-02T07:55:36.399Z,87.60
2018-01-02T07:56:36.383Z,88.36
2018-01-02T07:57:36.371Z,87.60
2018-01-02T07:58:36.357Z,87.79
2018-01-02T07:59:36.343Z,88.07
2018-01-02T08:00:36.328Z,88.36
2018-01-02T08:01:36.316Z,88.17
2018-01-02T08:02:36.299Z,88.17
2018-01-02T08:03:36.287Z,87.88
2018-01-02T08:04:36.268Z,87.04
2018-01-02T08:05:36.255Z,88.26
2018-01-02T08:06:36.238Z,87.13
2018-01-02T08:07:36.224Z,87.23
2018-01-02T08:08:36.211Z,87.60
2018-01-02T08:09:36.197Z,87.23
2018-01-02T08:10:36.182Z,86.47
2018-01-02T08:11:36.166Z,86.75
2018-01-02T08:12:36.161Z,86.85
2018-01-02T08:13:36.138Z,86.09
2018-01-02T08:14:36.124Z,85.33
2018-01-02T08:15:36.117Z,83.53
2018-01-02T08:16:36.093Z,84.20
2018-01-02T08:17:36.081Z,83.91
2018-01-02T08:18:36.071Z,84.10
2018-01-02T08:19:36.047Z,84.39
2018-01-02T08:20:36.036Z,84.29
2018-01-02T08:21:36.022Z,83.82
2018-01-02T08:22:36.012Z,82.97
2018-01-02T08:23:35.998Z,82.50
2018-01-02T08:24:35.981Z,81.26
2018-01-02T08:25:36.031Z,80.79
2018-01-02T08:26:35.953Z,80.04
2018-01-02T08:27:35.952Z,80.13
2018-01-02T08:28:35.924Z,80.41
2018-01-02T08:29:35.906Z,80.64
2018-01-02T08:30:35.902Z,80.83
2018-01-02T08:31:35.873Z,81.17
2018-01-02T08:32:35.872Z,81.36
2018-01-02T08:33:35.850Z,80.60
2018-01-02T08:34:35.849Z,79.75
2018-01-02T08:35:35.818Z,80.13
2018-01-02T08:36:35.805Z,80.22
2018-01-02T08:37:35.790Z,80.22
2018-01-02T08:38:35.781Z,80.64
2018-01-02T08:39:35.762Z,80.74
2018-01-02T08:40:35.748Z,80.45
2018-01-02T08:41:35.736Z,80.17
2018-01-02T08:42:35.720Z,80.26
2018-01-02T08:43:35.709Z,95.69
2018-01-02T08:44:35.695Z,99.99
2018-01-02T08:45:35.677Z,99.99
2018-01-02T08:46:35.668Z,95.08
2018-01-02T08:47:35.648Z,77.83
2018-01-02T08:48:35.635Z,72.45
2018-01-02T08:49:35.626Z,68.59
2018-01-02T08:50:35.608Z,64.81
2018-01-02T08:51:35.598Z,59.86
2018-01-02T08:52:35.578Z,58.44
2018-01-02T08:53:35.572Z,59.58
2018-01-02T08:54:35.554Z,57.01
2018-01-02T08:55:35.542Z,55.01
2018-01-02T08:56:35.524Z,54.22
2018-01-02T08:57:35.552Z,54.10
2018-01-02T08:58:35.504Z,55.59
2018-01-02T08:59:35.492Z,56.73
2018-01-02T09:00:35.476Z,57.46
2018-01-02T09:01:35.458Z,59.14
2018-01-02T09:02:35.449Z,60.76
2018-01-02T09:03:35.435Z,62.24
2018-01-02T09:04:35.436Z,64.81
2018-01-02T09:05:35.406Z,66.29
2018-01-02T09:06:35.398Z,68.35
2018-01-02T09:07:35.381Z,69.96
2018-01-02T09:08:35.367Z,71.28
2018-01-02T09:09:35.357Z,72.42
2018-01-02T09:10:35.341Z,73.80
2018-01-02T09:11:35.331Z,74.95
2018-01-02T09:12:35.313Z,74.85
2018-01-02T09:13:35.314Z,75.98
2018-01-02T09:14:35.292Z,76.08
2018-01-02T09:15:35.280Z,76.84
2018-01-02T09:16:35.266Z,77.40
2018-01-02T09:17:35.245Z,77.65
2018-01-02T09:18:35.235Z,78.59
2018-01-02T09:19:35.220Z,78.41
2018-01-02T09:20:35.208Z,78.59
2018-01-02T09:21:35.198Z,79.36
2018-01-02T09:22:35.178Z,79.83
2018-01-02T09:23:35.198Z,79.64
2018-01-02T09:24:35.157Z,79.41
2018-01-02T09:25:35.140Z,80.07
2018-01-02T09:26:35.125Z,80.64
2018-01-02T09:27:35.114Z,81.49
2018-01-02T09:28:35.100Z,83.29
2018-01-02T09:29:35.091Z,83.34
2018-01-02T09:30:35.074Z,82.21
2018-01-02T09:31:35.057Z,82.50
2018-01-02T09:32:35.048Z,82.68
2018-01-02T09:33:35.047Z,81.93
2018-01-02T09:34:35.021Z,82.68
2018-01-02T09:35:35.004Z,83.72
2018-01-02T09:36:34.989Z,84.20
2018-01-02T09:37:34.977Z,84.67
2018-01-02T09:38:34.969Z,84.86
2018-01-02T09:39:34.946Z,84.86
2018-01-02T09:40:34.934Z,84.39
2018-01-02T09:41:34.920Z,84.10
2018-01-02T09:42:34.904Z,84.20
2018-01-02T09:43:34.892Z,83.53
2018-01-02T09:44:34.879Z,83.82
2018-01-02T09:45:34.864Z,83.91
2018-01-02T09:46:34.848Z,83.25
2018-01-02T09:47:34.832Z,83.53
2018-01-02T09:48:34.825Z,83.15
2018-01-02T09:49:34.808Z,83.06
2018-01-02T09:50:34.791Z,83.44
2018-01-02T09:51:34.779Z,83.25
2018-01-02T09:52:34.760Z,82.87
2018-01-02T09:53:34.750Z,82.59
2018-01-02T09:54:34.734Z,82.31
2018-01-02T09:55:34.720Z,81.83
2018-01-02T09:56:34.701Z,80.69
2018-01-02T09:57:34.691Z,80.88
2018-01-02T09:58:34.676Z,80.22
2018-01-02T09:59:34.658Z,81.26
2018-01-02T10:00:34.650Z,81.45
2018-01-02T10:01:34.633Z,81.07
2018-01-02T10:02:34.618Z,80.60
2018-01-02T10:03:34.606Z,80.22
2018-01-02T10:04:34.593Z,79.37
2018-01-02T10:05:34.575Z,78.71
2018-01-02T10:06:34.562Z,78.90
2018-01-02T10:07:34.545Z,78.90
2018-01-02T10:08:34.528Z,78.90
2018-01-02T10:09:34.521Z,78.99
2018-01-02T10:10:34.505Z,78.90
2018-01-02T10:11:34.491Z,80.88
2018-01-02T10:12:34.473Z,81.07
2018-01-02T10:13:34.456Z,79.94
2018-01-02T10:14:34.450Z,79.37
2018-01-02T10:15:34.426Z,78.42
2018-01-02T10:16:34.415Z,78.52
2018-01-02T10:17:34.404Z,78.33
2018-01-02T10:18:34.385Z,78.56
2018-01-02T10:19:34.371Z,77.67
2018-01-02T10:20:34.360Z,77.51
2018-01-02T10:21:34.341Z,77.51
2018-01-02T10:22:34.327Z,77.61
2018-01-02T10:23:34.321Z,77.80
2018-01-02T10:24:34.296Z,77.42
2018-01-02T10:25:34.281Z,77.51
2018-01-02T10:26:34.269Z,77.89
2018-01-02T10:27:34.253Z,77.33
2018-01-02T10:28:34.238Z,76.57
2018-01-02T10:29:34.232Z,76.10
2018-01-02T10:30:34.220Z,75.72
2018-01-02T10:31:34.200Z,76.29
2018-01-02T10:32:34.184Z,76.48
2018-01-02T10:33:34.172Z,76.00
2018-01-02T10:34:34.156Z,76.10
2018-01-02T10:35:34.142Z,75.91
2018-01-02T10:36:34.131Z,74.40
2018-01-02T10:37:34.111Z,73.92
2018-01-02T10:38:34.104Z,74.02
2018-01-02T10:39:34.085Z,74.77
2018-01-02T10:40:34.076Z,73.73
2018-01-02T10:41:34.064Z,73.45
2018-01-02T10:42:34.041Z,73.26
2018-01-02T10:43:34.027Z,72.60
2018-01-02T10:44:34.012Z,72.78
2018-01-02T10:45:34.001Z,73.73
2018-01-02T10:46:33.987Z,74.30
2018-01-02T10:47:33.968Z,74.96
2018-01-02T10:48:33.956Z,74.68
2018-01-02T10:49:33.945Z,74.40
2018-01-02T10:50:33.933Z,74.11
2018-01-02T10:51:33.960Z,74.11
2018-01-02T10:52:33.918Z,73.73
2018-01-02T10:53:33.887Z,73.73
2018-01-02T10:54:33.872Z,74.68
2018-01-02T10:55:33.887Z,74.87
2018-01-02T10:56:33.842Z,75.34
2018-01-02T10:57:33.829Z,75.91
2018-01-02T10:58:33.816Z,76.57
2018-01-02T10:59:33.802Z,76.00
2018-01-02T11:00:33.789Z,75.72
2018-01-02T11:01:33.778Z,76.19
2018-01-02T11:02:33.766Z,76.00
2018-01-02T11:03:33.747Z,76.19
2018-01-02T11:04:33.733Z,77.14
2018-01-02T11:05:33.718Z,77.61
2018-01-02T11:06:33.704Z,78.75
2018-01-02T11:07:33.693Z,78.46
2018-01-02T11:08:33.678Z,78.18
2018-01-02T11:09:33.657Z,77.99
2018-01-02T11:10:33.650Z,78.08
2018-01-02T11:11:33.635Z,78.27
2018-01-02T11:12:33.626Z,78.27
2018-01-02T11:13:33.609Z,77.89
2018-01-02T11:14:33.593Z,77.23
2018-01-02T11:15:33.580Z,76.95
2018-01-02T11:16:33.563Z,77.14
2018-01-02T11:17:33.552Z,77.33
2018-01-02T11:18:33.537Z,76.57
2018-01-02T11:19:33.522Z,76.48
2018-01-02T11:20:33.508Z,76.48
2018-01-02T11:21:33.494Z,76.38
2018-01-02T11:22:33.491Z,76.10
2018-01-02T11:23:33.467Z,76.00
2018-01-02T11:24:33.474Z,76.95
2018-01-02T11:25:33.455Z,76.42
2018-01-02T11:26:33.428Z,75.95
2018-01-02T11:27:33.408Z,75.53
2018-01-02T11:28:33.418Z,75.53
2018-01-02T11:29:33.390Z,75.76
2018-01-02T11:30:33.370Z,73.68
2018-01-02T11:31:33.359Z,74.24
2018-01-02T11:32:33.343Z,74.21
2018-01-02T11:33:33.325Z,74.21
2018-01-02T11:34:33.313Z,73.92
2018-01-02T11:35:33.300Z,73.49
2018-01-02T11:36:33.284Z,74.24
2018-01-02T11:37:33.275Z,73.58
2018-01-02T11:38:33.257Z,73.68
2018-01-02T11:39:33.246Z,73.68
2018-01-02T11:40:33.230Z,73.49
2018-01-02T11:41:33.218Z,73.11
2018-01-02T11:42:33.208Z,72.92
2018-01-02T11:43:33.200Z,73.39
2018-01-02T11:44:33.179Z,74.05
2018-01-02T11:45:33.161Z,73.49
2018-01-02T11:46:33.149Z,73.39
2018-01-02T11:47:33.135Z,73.30
2018-01-02T11:48:33.119Z,73.49
2018-01-02T11:49:33.108Z,72.53
2018-01-02T11:50:33.095Z,72.34
2018-01-02T11:51:33.081Z,72.63
2018-01-02T11:52:33.065Z,73.11
2018-01-02T11:53:33.052Z,73.30
2018-01-02T11:54:33.055Z,72.73
2018-01-02T11:55:33.023Z,72.16
2018-01-02T11:56:33.013Z,71.69
2018-01-02T11:57:32.999Z,71.88
2018-01-02T11:58:32.990Z,71.88
2018-01-02T11:59:32.973Z,71.69
2018-01-02T12:00:32.958Z,72.25
2018-01-02T12:01:32.945Z,71.88
2018-01-02T12:02:32.932Z,72.16
2018-01-02T12:03:32.912Z,71.97
2018-01-02T12:04:32.911Z,72.34
2018-01-02T12:05:32.890Z,71.62
2018-01-02T12:06:32.880Z,70.97
2018-01-02T12:07:32.866Z,70.68
2018-01-02T12:08:32.854Z,70.11
2018-01-02T12:09:32.840Z,69.54
2018-01-02T12:10:32.880Z,69.45
2018-01-02T12:11:32.814Z,69.26
2018-01-02T12:12:32.797Z,69.45
2018-01-02T12:13:32.783Z,69.45
2018-01-02T12:14:32.773Z,68.12
2018-01-02T12:15:32.755Z,68.02
2018-01-02T12:16:32.744Z,68.98
2018-01-02T12:17:32.730Z,68.79
2018-01-02T12:18:32.717Z,68.02
2018-01-02T12:19:32.703Z,68.50
2018-01-02T12:20:32.689Z,68.02
2018-01-02T12:21:32.733Z,68.12
2018-01-02T12:22:32.665Z,68.21
2018-01-02T12:23:32.652Z,67.93
2018-01-02T12:24:32.641Z,68.02
2018-01-02T12:25:32.623Z,68.98
2018-01-02T12:26:32.615Z,67.46
2018-01-02T12:27:32.600Z,66.80
2018-01-02T12:28:32.582Z,66.80
2018-01-02T12:29:32.572Z,66.80
2018-01-02T12:30:32.556Z,67.36
2018-01-02T12:31:32.543Z,67.46
2018-01-02T12:32:32.529Z,67.65
2018-01-02T12:33:32.532Z,67.77
2018-01-02T12:34:32.506Z,67.55
2018-01-02T12:35:32.493Z,67.46
2018-01-02T12:36:32.477Z,67.65
2018-01-02T12:37:32.465Z,67.55
2018-01-02T12:38:32.453Z,67.55
2018-01-02T12:39:32.442Z,67.55
2018-01-02T12:40:32.429Z,66.99
2018-01-02T12:41:32.420Z,66.70
2018-01-02T12:42:32.399Z,66.51
2018-01-02T12:43:32.389Z,65.75
2018-01-02T12:44:32.390Z,69.82
2018-01-02T12:45:32.363Z,70.58
2018-01-02T12:46:32.346Z,68.88
2018-01-02T12:47:32.336Z,68.69
2018-01-02T12:48:32.327Z,68.88
2018-01-02T12:49:32.307Z,67.83
2018-01-02T12:50:32.300Z,67.55
2018-01-02T12:51:32.282Z,67.18
2018-01-02T12:52:32.268Z,65.66